Time;durP1;ratioP1;P1;durP2;ratioP2;P2;SDS_P1;SDS_P2;PMS_P1;PMS_P2;Temp;Humidity;BMP_temperature;BMP_pressure;BME280_temperature;BME280_humidity;BME280_pressure;Samples;Min_cycle;Max_cycle;Signal;HPM_P1;HPM_P2
2021/04/27 06:09:31;;;;;;;22.27;10.48;;;8.50;99.90;;;;;;3635066;39;806508;-88
2021/04/27 06:11:58;;;;;;;11.05;7.53;;;8.20;99.90;;;;;;3637774;39;20043;-90
2021/04/27 06:14:24;;;;;;;7.10;4.63;;;7.80;99.90;;;;;;3626977;39;20074;-89
2021/04/27 06:16:50;;;;;;;22.08;12.70;;;8.40;99.90;;;;;;3624000;39;20049;-89
2021/04/27 06:19:16;;;;;;;10.60;6.03;;;8.30;99.90;;;;;;3625649;39;20307;-89
2021/04/27 06:21:43;;;;;;;33.25;18.42;;;7.90;99.90;;;;;;3616493;39;20034;-89
2021/04/27 06:24:10;;;;;;;36.13;17.13;;;8.30;99.90;;;;;;3627216;39;20564;-89
2021/04/27 06:26:36;;;;;;;26.83;15.77;;;8.60;99.90;;;;;;3634650;39;20042;-88
2021/04/27 06:29:02;;;;;;;16.85;8.40;;;8.60;99.90;;;;;;3623000;39;20054;-90
2021/04/27 06:31:29;;;;;;;17.52;9.60;;;8.40;99.90;;;;;;3622461;39;20059;-90
2021/04/27 06:33:54;;;;;;;28.20;14.10;;;8.50;99.90;;;;;;3621907;39;20063;-87
2021/04/27 06:36:20;;;;;;;9.77;6.65;;;9.30;99.90;;;;;;3627207;39;20054;-90
2021/04/27 06:38:46;;;;;;;12.88;7.57;;;9.00;99.90;;;;;;3625796;39;20061;-89
2021/04/27 06:41:12;;;;;;;12.73;7.47;;;8.70;99.90;;;;;;3619033;39;20039;-90
2021/04/27 06:43:38;;;;;;;28.80;14.43;;;8.80;99.90;;;;;;3628831;39;20051;-88
2021/04/27 06:46:04;;;;;;;16.85;9.93;;;9.10;99.90;;;;;;3641002;39;20042;-89
2021/04/27 06:48:34;;;;;;;10.02;5.60;;;9.40;99.90;;;;;;3638723;39;20042;-90
2021/04/27 06:51:00;;;;;;;38.85;15.75;;;9.50;99.90;;;;;;3639058;39;20052;-90
2021/04/27 06:53:26;;;;;;;27.00;13.40;;;9.70;99.90;;;;;;3628090;39;20601;-89
2021/04/27 06:55:52;;;;;;;12.80;5.15;;;9.80;99.90;;;;;;3631431;39;20061;-91
2021/04/27 06:58:17;;;;;;;9.48;4.90;;;9.50;99.90;;;;;;3635944;39;20078;-87
2021/04/27 07:00:43;;;;;;;6.85;3.60;;;9.50;99.90;;;;;;3626983;39;20062;-89
2021/04/27 07:03:09;;;;;;;11.40;7.40;;;9.30;99.90;;;;;;3633673;39;20069;-90
2021/04/27 07:05:36;;;;;;;6.75;4.25;;;9.30;99.90;;;;;;3619231;39;20046;-89
2021/04/27 07:08:02;;;;;;;9.30;6.38;;;9.10;99.90;;;;;;3637406;39;20070;-85
2021/04/27 07:10:28;;;;;;;14.07;5.68;;;9.50;99.90;;;;;;3627193;39;20051;-86
2021/04/27 07:12:55;;;;;;;10.70;4.70;;;9.50;99.90;;;;;;3620033;39;20055;-87
2021/04/27 07:15:20;;;;;;;10.10;4.90;;;9.60;99.90;;;;;;3631890;39;20057;-86
2021/04/27 07:17:47;;;;;;;11.43;6.20;;;10.00;99.90;;;;;;3629578;39;20767;-85
2021/04/27 07:20:13;;;;;;;7.70;4.75;;;9.70;99.90;;;;;;3622151;39;20317;-85
2021/04/27 07:22:39;;;;;;;6.88;4.28;;;9.60;99.90;;;;;;3618861;39;20057;-87
2021/04/27 07:25:07;;;;;;;8.82;5.05;;;9.80;99.90;;;;;;3622991;39;20042;-87
2021/04/27 07:27:33;;;;;;;8.95;5.25;;;10.10;99.90;;;;;;3622684;39;20047;-87
2021/04/27 07:29:59;;;;;;;6.95;4.75;;;10.20;99.90;;;;;;3596955;39;20422;-87
2021/04/27 07:32:24;;;;;;;8.50;4.82;;;9.80;99.90;;;;;;3594935;39;20051;-86
2021/04/27 07:34:50;;;;;;;6.22;3.75;;;9.70;99.90;;;;;;3608823;39;20047;-87
2021/04/27 07:37:17;;;;;;;6.43;3.25;;;9.50;99.90;;;;;;3607562;39;20060;-86
2021/04/27 07:39:43;;;;;;;9.00;4.72;;;10.60;99.90;;;;;;3601014;39;20080;-85
2021/04/27 07:42:09;;;;;;;6.07;4.57;;;10.70;99.90;;;;;;3597887;39;20051;-85
2021/04/27 07:44:35;;;;;;;8.68;3.55;;;10.80;99.50;;;;;;3598218;39;20064;-84
2021/04/27 07:47:00;;;;;;;4.78;2.90;;;11.40;98.60;;;;;;3599861;39;20124;-85
2021/04/27 07:49:26;;;;;;;11.85;4.45;;;11.20;99.70;;;;;;3607122;39;20043;-87
2021/04/27 07:51:52;;;;;;;5.18;3.53;;;10.30;99.90;;;;;;3598191;39;20059;-85
2021/04/27 07:54:18;;;;;;;9.75;3.38;;;11.10;98.60;;;;;;3603362;39;20380;-85
2021/04/27 07:56:44;;;;;;;8.88;4.13;;;11.50;96.80;;;;;;3606930;39;20112;-87
2021/04/27 07:59:13;;;;;;;6.28;3.00;;;11.30;98.30;;;;;;3598110;39;20493;-85
2021/04/27 08:01:39;;;;;;;6.53;3.08;;;11.40;96.50;;;;;;3599144;39;20646;-85
2021/04/27 08:04:05;;;;;;;5.07;3.55;;;11.50;96.40;;;;;;3605790;39;20047;-84
2021/04/27 08:06:31;;;;;;;6.93;3.92;;;11.90;96.20;;;;;;3605991;39;20050;-86
2021/04/27 08:08:57;;;;;;;4.55;2.85;;;12.20;97.50;;;;;;3606580;39;20048;-86
2021/04/27 08:11:23;;;;;;;4.90;3.55;;;12.30;95.20;;;;;;3607045;39;20043;-83
2021/04/27 08:13:49;;;;;;;3.97;2.97;;;12.00;95.90;;;;;;3604567;39;20985;-83
2021/04/27 08:16:15;;;;;;;5.22;2.85;;;12.50;94.10;;;;;;3606664;39;20052;-84
2021/04/27 08:18:40;;;;;;;5.18;3.58;;;12.70;94.80;;;;;;3606123;39;20330;-85
2021/04/27 08:21:09;;;;;;;5.18;3.15;;;12.30;95.30;;;;;;3606939;39;20059;-85
2021/04/27 08:23:36;;;;;;;6.70;3.20;;;12.60;95.30;;;;;;3602491;39;20047;-86
2021/04/27 08:26:03;;;;;;;4.38;2.50;;;12.90;93.80;;;;;;3607063;39;20051;-86
2021/04/27 08:28:29;;;;;;;6.70;3.45;;;12.50;93.90;;;;;;3606298;39;20066;-82
2021/04/27 08:30:56;;;;;;;5.97;3.40;;;12.70;94.50;;;;;;3606581;39;20055;-83
2021/04/27 08:33:22;;;;;;;4.97;3.53;;;12.80;93.80;;;;;;3602702;39;20048;-84
2021/04/27 08:35:49;;;;;;;5.00;3.20;;;13.40;93.30;;;;;;3597576;39;20322;-88
2021/04/27 08:38:15;;;;;;;4.53;2.85;;;13.10;94.20;;;;;;3604114;39;20074;-85
2021/04/27 08:40:41;;;;;;;8.18;3.38;;;13.20;92.80;;;;;;3606475;39;20294;-81
2021/04/27 08:43:07;;;;;;;4.38;3.05;;;13.60;93.30;;;;;;3606703;39;20051;-81
2021/04/27 08:45:34;;;;;;;7.97;3.88;;;13.60;92.70;;;;;;3605654;39;20128;-82
2021/04/27 08:48:00;;;;;;;5.60;3.38;;;14.10;90.90;;;;;;3606801;39;20062;-81
2021/04/27 08:50:27;;;;;;;6.25;3.50;;;14.40;90.40;;;;;;3609884;39;20056;-82
2021/04/27 08:52:52;;;;;;;6.13;2.67;;;15.30;88.90;;;;;;3596585;39;20048;-81
2021/04/27 08:55:18;;;;;;;8.20;3.47;;;15.20;88.60;;;;;;3597230;39;20527;-81
2021/04/27 08:57:44;;;;;;;9.75;3.42;;;14.80;84.20;;;;;;3606246;39;20058;-82
2021/04/27 09:00:13;;;;;;;4.38;2.78;;;14.40;81.90;;;;;;3606292;39;20050;-82
2021/04/27 09:02:39;;;;;;;10.50;3.20;;;15.10;81.00;;;;;;3606149;39;20051;-84
2021/04/27 09:05:18;;;;;;;4.03;2.92;;;15.50;80.50;;;;;;3606484;39;20391;-83
2021/04/27 09:07:44;;;;;;;5.45;2.80;;;15.60;77.40;;;;;;3596715;39;20461;-85
2021/04/27 09:10:18;;;;;;;5.07;2.50;;;14.80;76.40;;;;;;3603301;39;20070;-84
2021/04/27 09:12:50;;;;;;;3.60;2.97;;;15.60;74.90;;;;;;3604797;39;20058;-84
2021/04/27 09:15:35;;;;;;;6.97;2.95;;;16.30;74.60;;;;;;3597901;39;20400;-84
2021/04/27 09:18:29;;;;;;;7.07;4.50;;;16.40;73.20;;;;;;3605693;39;20091;-85
2021/04/27 09:21:04;;;;;;;3.47;2.33;;;16.40;66.70;;;;;;3606691;39;20051;-82
2021/04/27 09:23:30;;;;;;;4.82;2.70;;;16.40;66.60;;;;;;3606775;39;20124;-83
2021/04/27 09:26:13;;;;;;;6.32;2.63;;;16.10;64.60;;;;;;3606806;39;20043;-85
2021/04/27 09:28:43;;;;;;;3.67;2.17;;;17.00;63.40;;;;;;3596960;39;20064;-84
2021/04/27 09:31:21;;;;;;;12.35;6.50;;;16.40;61.80;;;;;;3604690;39;20059;-86
2021/04/27 09:33:48;;;;;;;9.20;3.35;;;16.10;60.60;;;;;;3606510;39;20051;-85
2021/04/27 09:36:19;;;;;;;10.77;3.65;;;17.30;60.10;;;;;;3597301;39;20061;-84
2021/04/27 09:38:45;;;;;;;6.30;3.00;;;16.90;59.10;;;;;;3604984;39;20087;-83
2021/04/27 09:41:11;;;;;;;5.55;3.88;;;16.60;58.10;;;;;;3603810;39;20764;-83
2021/04/27 09:43:44;;;;;;;7.07;2.80;;;17.10;55.80;;;;;;3603887;39;20155;-84
2021/04/27 09:46:13;;;;;;;3.35;2.70;;;17.60;55.70;;;;;;3607277;39;20140;-85
2021/04/27 09:48:41;;;;;;;8.60;4.30;;;16.70;54.70;;;;;;3605800;39;20124;-84
2021/04/27 09:51:12;;;;;;;6.10;2.88;;;16.90;55.60;;;;;;3606575;39;20082;-84
2021/04/27 09:53:54;;;;;;;6.30;2.60;;;16.80;54.30;;;;;;3606041;39;20127;-83
2021/04/27 09:56:41;;;;;;;7.32;2.25;;;16.60;54.30;;;;;;3606854;39;20299;-84
2021/04/27 09:59:12;;;;;;;3.65;3.10;;;16.90;54.50;;;;;;3605963;39;20047;-84
2021/04/27 10:01:39;;;;;;;5.45;2.47;;;17.10;53.20;;;;;;3606593;39;20375;-82
2021/04/27 10:04:05;;;;;;;3.70;2.28;;;17.50;52.40;;;;;;3606287;39;20059;-82
2021/04/27 10:06:32;;;;;;;5.32;2.65;;;17.30;51.80;;;;;;3606423;39;20054;-81
2021/04/27 10:08:58;;;;;;;6.40;3.17;;;16.70;49.60;;;;;;3606143;39;20044;-84
2021/04/27 10:11:28;;;;;;;4.00;2.03;;;16.30;48.80;;;;;;3611059;39;20423;-85
2021/04/27 10:13:57;;;;;;;7.60;2.17;;;16.60;49.60;;;;;;3608154;39;20402;-84
2021/04/27 10:16:23;;;;;;;7.28;4.55;;;17.10;48.30;;;;;;3604217;39;20433;-81
2021/04/27 10:18:53;;;;;;;3.75;2.70;;;17.00;47.00;;;;;;3602228;39;20051;-85
2021/04/27 10:21:19;;;;;;;2.40;2.15;;;17.20;47.60;;;;;;3607597;39;20555;-84
2021/04/27 10:24:00;;;;;;;;;;;;;;;;;;;;;
2021/04/27 10:26:29;;;;;;;5.85;2.50;;;16.30;46.10;;;;;;3603114;39;20168;-87
2021/04/27 10:29:19;;;;;;;10.85;6.68;;;16.20;47.80;;;;;;3606270;39;20136;-85
2021/04/27 10:31:46;;;;;;;5.28;3.47;;;16.90;49.30;;;;;;3606141;39;20051;-85
2021/04/27 10:34:19;;;;;;;5.55;2.92;;;17.50;46.50;;;;;;3605588;39;20067;-85
2021/04/27 10:36:48;;;;;;;6.90;2.97;;;17.30;45.00;;;;;;3597836;39;20058;-84
2021/04/27 10:39:14;;;;;;;2.97;2.58;;;16.60;44.50;;;;;;3604624;39;20059;-84
2021/04/27 10:41:53;;;;;;;4.53;2.33;;;16.80;44.10;;;;;;3606193;39;20167;-85
2021/04/27 10:44:20;;;;;;;4.28;2.40;;;17.00;44.90;;;;;;3606001;39;20523;-85
2021/04/27 10:46:59;;;;;;;6.28;2.92;;;17.20;44.60;;;;;;3606350;39;20054;-86
2021/04/27 10:49:34;;;;;;;5.22;2.33;;;16.60;43.60;;;;;;3606483;39;20066;-84
2021/04/27 10:52:01;;;;;;;4.53;3.08;;;17.20;43.70;;;;;;3597605;39;20048;-85
2021/04/27 10:54:30;;;;;;;3.08;2.17;;;17.40;44.40;;;;;;3605110;39;20075;-86
2021/04/27 10:57:12;;;;;;;5.63;2.35;;;17.20;43.80;;;;;;3607794;39;20068;-85
2021/04/27 10:59:56;;;;;;;2.38;2.10;;;16.80;44.20;;;;;;3607531;39;20055;-85
2021/04/27 11:02:25;;;;;;;4.05;2.20;;;17.20;43.10;;;;;;3607381;39;20051;-87
2021/04/27 11:05:01;;;;;;;5.03;2.30;;;17.10;42.10;;;;;;3607747;39;20329;-84
2021/04/27 11:07:27;;;;;;;4.60;2.20;;;17.10;41.30;;;;;;3606805;39;20042;-87
2021/04/27 11:09:59;;;;;;;3.03;2.20;;;16.90;41.70;;;;;;3607771;39;20784;-89
2021/04/27 11:12:32;;;;;;;3.53;2.10;;;16.50;42.70;;;;;;3600698;39;20039;-86
2021/04/27 11:15:08;;;;;;;6.20;3.33;;;16.00;41.50;;;;;;3608029;39;20132;-87
2021/04/27 11:17:36;;;;;;;6.30;2.30;;;16.40;43.40;;;;;;3608105;39;20382;-87
2021/04/27 11:20:05;;;;;;;3.13;2.67;;;15.80;40.90;;;;;;3598556;39;20047;-88
2021/04/27 11:22:33;;;;;;;4.43;2.47;;;16.80;41.60;;;;;;3600619;39;20047;-86
2021/04/27 11:25:04;;;;;;;4.15;1.98;;;15.80;41.10;;;;;;3602598;39;20058;-86
2021/04/27 11:27:32;;;;;;;4.60;2.38;;;16.60;41.30;;;;;;3596045;39;20398;-87
2021/04/27 11:29:59;;;;;;;4.22;2.90;;;16.30;42.30;;;;;;3610918;39;20044;-88
2021/04/27 11:32:27;;;;;;;5.57;2.45;;;16.50;43.20;;;;;;3610523;39;20053;-86
2021/04/27 11:34:57;;;;;;;4.85;2.20;;;16.50;41.80;;;;;;3610402;39;20095;-88
2021/04/27 11:37:35;;;;;;;3.50;2.00;;;17.70;41.60;;;;;;3602106;39;20051;-84
2021/04/27 11:40:12;;;;;;;3.63;1.95;;;17.20;41.30;;;;;;3608506;39;20052;-85
2021/04/27 11:42:38;;;;;;;3.92;1.75;;;16.50;40.80;;;;;;3605678;39;20054;-83
2021/04/27 11:45:14;;;;;;;7.40;2.08;;;17.10;40.70;;;;;;3609295;39;20047;-88
2021/04/27 11:47:41;;;;;;;6.70;2.30;;;17.60;40.00;;;;;;3608153;39;20435;-86
2021/04/27 11:50:25;;;;;;;1.98;1.73;;;17.10;40.00;;;;;;3608412;39;20429;-87
2021/04/27 11:52:55;;;;;;;5.22;2.28;;;17.40;39.90;;;;;;3607790;39;20051;-89
2021/04/27 11:55:32;;;;;;;6.70;2.50;;;18.30;40.10;;;;;;3607789;39;20063;-87
2021/04/27 11:58:04;;;;;;;2.85;2.10;;;17.80;39.80;;;;;;3606325;39;20299;-87
2021/04/27 12:00:35;;;;;;;7.72;1.80;;;17.50;38.80;;;;;;3607125;39;20079;-89
2021/04/27 12:03:27;;;;;;;3.67;1.83;;;17.40;39.20;;;;;;3608245;39;20047;-89
2021/04/27 12:06:15;;;;;;;2.83;1.65;;;17.90;38.90;;;;;;3600651;39;20083;-89
2021/04/27 12:08:48;;;;;;;2.10;1.60;;;17.80;38.90;;;;;;3605893;39;20773;-89
2021/04/27 12:11:23;;;;;;;;;;;17.80;38.40;;;;;;3608303;39;20056;-86
2021/04/27 12:14:02;;;;;;;2.50;1.70;;;17.70;37.70;;;;;;3608142;39;19964;-88
2021/04/27 12:16:42;;;;;;;2.17;1.67;;;16.90;38.20;;;;;;3605044;39;20052;-88
2021/04/27 12:19:19;;;;;;;2.67;1.55;;;16.80;38.50;;;;;;3601476;40;20052;-88
2021/04/27 12:22:05;;;;;;;2.03;1.80;;;17.20;38.80;;;;;;3603205;39;20408;-90
2021/04/27 12:24:36;;;;;;;3.47;2.10;;;15.70;38.90;;;;;;3608409;39;20043;-90
2021/04/27 12:27:21;;;;;;;2.85;2.00;;;16.60;38.90;;;;;;3609365;39;20112;-91
2021/04/27 12:29:54;;;;;;;1.98;1.63;;;17.00;39.40;;;;;;3607890;39;20424;-89
2021/04/27 12:32:26;;;;;;;1.58;1.40;;;17.20;38.80;;;;;;3607059;39;20286;-88
2021/04/27 12:35:08;;;;;;;4.53;3.13;;;17.10;37.60;;;;;;3608319;39;20069;-87
2021/04/27 12:37:37;;;;;;;2.38;1.52;;;17.30;37.40;;;;;;3607117;39;20128;-84
2021/04/27 12:40:34;;;;;;;4.22;1.52;;;18.00;38.60;;;;;;3598005;40;20028;-88
2021/04/27 12:43:04;;;;;;;2.70;1.88;;;17.80;37.60;;;;;;3590974;39;20043;-88
2021/04/27 12:45:48;;;;;;;3.25;1.88;;;16.70;38.60;;;;;;3608008;39;20287;-88
2021/04/27 12:48:17;;;;;;;6.07;2.28;;;17.10;37.70;;;;;;3607386;39;20336;-87
2021/04/27 12:50:52;;;;;;;2.70;2.22;;;17.00;38.00;;;;;;3610187;39;20059;-86
2021/04/27 12:53:20;;;;;;;3.63;1.92;;;18.10;39.70;;;;;;3615072;39;20044;-89
2021/04/27 12:55:51;;;;;;;2.90;1.73;;;18.30;39.60;;;;;;3609872;39;20084;-89
2021/04/27 12:58:27;;;;;;;4.03;1.80;;;17.40;37.30;;;;;;3609609;39;20128;-85
2021/04/27 13:00:54;;;;;;;2.53;1.83;;;17.40;38.10;;;;;;3607546;39;20054;-85
2021/04/27 13:03:22;;;;;;;3.30;1.73;;;17.30;38.50;;;;;;3607757;39;20060;-86
2021/04/27 13:05:52;;;;;;;2.13;1.70;;;17.10;38.30;;;;;;3607825;39;20109;-83
2021/04/27 13:08:25;;;;;;;4.65;1.98;;;17.60;38.80;;;;;;3606201;39;20036;-82
2021/04/27 13:10:52;;;;;;;4.68;1.90;;;18.00;38.80;;;;;;3607030;39;20078;-83
2021/04/27 13:13:22;;;;;;;1.73;1.63;;;18.90;40.20;;;;;;3607368;39;20055;-87
2021/04/27 13:16:00;;;;;;;4.38;1.83;;;18.90;37.90;;;;;;3607167;39;20059;-84
2021/04/27 13:18:28;;;;;;;8.35;1.90;;;18.40;38.10;;;;;;3605097;39;20051;-83
2021/04/27 13:21:02;;;;;;;2.50;1.50;;;17.60;36.30;;;;;;3608002;39;20073;-86
2021/04/27 13:23:31;;;;;;;3.42;2.00;;;17.90;37.00;;;;;;3597952;39;20063;-88
2021/04/27 13:26:08;;;;;;;5.95;2.05;;;17.90;37.30;;;;;;3589823;39;20328;-86
2021/04/27 13:28:39;;;;;;;7.85;3.40;;;17.80;39.00;;;;;;3604317;39;20538;-85
2021/04/27 13:31:06;;;;;;;4.75;1.77;;;17.30;36.90;;;;;;3607808;39;20048;-85
2021/04/27 13:33:38;;;;;;;7.95;2.63;;;17.70;38.00;;;;;;3598754;39;20051;-85
2021/04/27 13:36:05;;;;;;;3.67;2.60;;;17.70;37.60;;;;;;3606617;39;20444;-84
2021/04/27 13:38:33;;;;;;;14.88;7.15;;;17.60;38.60;;;;;;3595327;39;20485;-85
2021/04/27 13:41:04;;;;;;;6.63;2.20;;;17.90;39.40;;;;;;3601717;39;20059;-87
2021/04/27 13:43:38;;;;;;;11.55;4.70;;;17.80;38.90;;;;;;3602420;39;20073;-84
2021/04/27 13:46:05;;;;;;;6.82;2.78;;;18.30;39.80;;;;;;3601882;39;20241;-85
2021/04/27 13:48:33;;;;;;;4.55;2.30;;;18.10;37.80;;;;;;3601575;39;20125;-85
2021/04/27 13:51:02;;;;;;;3.22;2.40;;;17.90;38.30;;;;;;3608404;39;20067;-84
2021/04/27 13:53:31;;;;;;;3.15;2.22;;;18.30;38.20;;;;;;3606477;39;20073;-84
2021/04/27 13:55:57;;;;;;;4.45;2.15;;;18.20;38.70;;;;;;3604150;39;20051;-84
2021/04/27 13:58:24;;;;;;;3.20;2.13;;;18.10;38.70;;;;;;3606782;39;20128;-84
2021/04/27 14:00:50;;;;;;;8.30;2.47;;;18.20;38.20;;;;;;3606491;39;20585;-86
2021/04/27 14:03:16;;;;;;;4.35;1.85;;;18.50;39.80;;;;;;3605206;39;20306;-85
2021/04/27 14:05:42;;;;;;;3.17;2.38;;;18.60;38.00;;;;;;3606584;39;20052;-85
2021/04/27 14:08:09;;;;;;;2.53;1.60;;;18.10;38.20;;;;;;3606111;39;20052;-85
2021/04/27 14:10:36;;;;;;;9.18;2.50;;;18.40;39.30;;;;;;3607197;39;20051;-87
2021/04/27 14:13:02;;;;;;;3.28;2.15;;;18.30;38.70;;;;;;3607928;39;20313;-85
2021/04/27 14:15:34;;;;;;;4.32;2.13;;;18.10;38.60;;;;;;3606401;39;20044;-85
2021/04/27 14:18:00;;;;;;;3.13;1.98;;;18.00;38.20;;;;;;3604670;39;20046;-86
2021/04/27 14:20:28;;;;;;;3.53;2.00;;;18.00;37.60;;;;;;3607115;39;20060;-86
2021/04/27 14:22:57;;;;;;;5.93;2.13;;;18.00;37.20;;;;;;3598312;39;20429;-86
2021/04/27 14:25:22;;;;;;;2.20;1.73;;;17.60;36.70;;;;;;3606539;39;20063;-85
2021/04/27 14:27:49;;;;;;;5.40;2.22;;;17.40;36.50;;;;;;3604454;39;20402;-87
2021/04/27 14:30:18;;;;;;;2.30;1.92;;;18.10;38.80;;;;;;3607636;39;20058;-85
2021/04/27 14:32:46;;;;;;;5.13;2.03;;;18.00;37.80;;;;;;3600057;39;20431;-83
2021/04/27 14:35:14;;;;;;;3.47;1.90;;;18.00;38.60;;;;;;3607857;39;20060;-84
2021/04/27 14:37:41;;;;;;;2.72;2.33;;;18.10;37.90;;;;;;3606982;39;20048;-83
2021/04/27 14:40:08;;;;;;;9.68;4.22;;;18.10;37.70;;;;;;3607787;39;20051;-83
2021/04/27 14:42:34;;;;;;;8.13;3.90;;;18.00;37.40;;;;;;3607804;39;20075;-85
2021/04/27 14:45:00;;;;;;;16.35;6.18;;;16.90;37.80;;;;;;3598690;39;20042;-83
2021/04/27 14:47:26;;;;;;;6.88;1.98;;;17.50;37.70;;;;;;3608265;39;20047;-83
2021/04/27 14:49:56;;;;;;;7.53;3.40;;;16.90;38.20;;;;;;3600181;39;20050;-83
2021/04/27 14:52:22;;;;;;;11.25;4.00;;;16.80;38.10;;;;;;3607660;39;20068;-83
2021/04/27 14:54:48;;;;;;;4.05;2.45;;;17.10;37.40;;;;;;3598564;39;20051;-85
2021/04/27 14:57:14;;;;;;;7.38;2.47;;;17.60;37.20;;;;;;3607883;39;20409;-86
2021/04/27 14:59:39;;;;;;;10.13;4.97;;;17.70;36.90;;;;;;3607344;39;20055;-84
2021/04/27 15:02:05;;;;;;;4.13;3.00;;;17.80;38.20;;;;;;3607783;39;20077;-85
2021/04/27 15:04:31;;;;;;;4.15;3.00;;;17.70;39.90;;;;;;3607286;39;20047;-85
2021/04/27 15:06:58;;;;;;;6.63;4.38;;;17.80;38.60;;;;;;3598249;39;20326;-86
2021/04/27 15:09:23;;;;;;;9.65;4.18;;;17.90;38.60;;;;;;3604275;39;20048;-85
2021/04/27 15:11:49;;;;;;;6.60;3.60;;;17.90;38.70;;;;;;3607312;39;20066;-86
2021/04/27 15:14:15;;;;;;;7.65;3.83;;;17.70;39.30;;;;;;3607626;39;20325;-84
2021/04/27 15:16:42;;;;;;;6.45;3.58;;;17.50;40.20;;;;;;3607398;39;20054;-85
2021/04/27 15:19:09;;;;;;;6.68;3.20;;;17.40;40.40;;;;;;3607544;39;20419;-85
2021/04/27 15:21:36;;;;;;;6.93;3.40;;;17.00;40.30;;;;;;3608128;39;20087;-85
2021/04/27 15:24:05;;;;;;;5.45;2.90;;;17.30;39.50;;;;;;3606965;39;20043;-84
2021/04/27 15:26:32;;;;;;;4.30;2.92;;;17.00;38.80;;;;;;3607888;39;20127;-85
2021/04/27 15:28:58;;;;;;;4.13;3.03;;;17.20;39.00;;;;;;3607574;39;20392;-84
2021/04/27 15:31:24;;;;;;;3.78;3.47;;;17.00;40.70;;;;;;3609747;39;20039;-83
2021/04/27 15:33:49;;;;;;;4.13;3.28;;;16.80;40.60;;;;;;3609186;39;20220;-85
2021/04/27 15:36:16;;;;;;;6.57;3.50;;;16.50;40.80;;;;;;3607492;39;20048;-85
2021/04/27 15:38:42;;;;;;;7.30;3.50;;;16.90;40.20;;;;;;3607027;39;20056;-85
2021/04/27 15:41:09;;;;;;;5.65;3.28;;;16.70;40.10;;;;;;3597718;39;20391;-84
2021/04/27 15:43:38;;;;;;;6.50;3.00;;;16.90;40.70;;;;;;3601491;39;20059;-84
2021/04/27 15:46:09;;;;;;;6.50;3.40;;;16.70;41.60;;;;;;3606458;39;20139;-85
2021/04/27 15:48:34;;;;;;;4.43;3.05;;;17.10;42.10;;;;;;3606954;39;20063;-85
2021/04/27 15:51:01;;;;;;;5.95;3.47;;;16.80;40.90;;;;;;3607151;39;20044;-85
2021/04/27 15:53:26;;;;;;;5.00;3.72;;;16.70;40.70;;;;;;3607594;39;20051;-84
2021/04/27 15:55:52;;;;;;;5.38;3.55;;;16.20;41.20;;;;;;3606258;39;20058;-83
2021/04/27 15:58:18;;;;;;;7.65;3.28;;;16.40;41.40;;;;;;3609440;39;20405;-88
2021/04/27 16:00:43;;;;;;;5.18;3.28;;;16.50;40.90;;;;;;3609956;39;20042;-86
2021/04/27 16:03:09;;;;;;;4.50;3.10;;;16.80;41.40;;;;;;3608288;39;20048;-82
2021/04/27 16:05:34;;;;;;;4.88;3.10;;;16.50;41.10;;;;;;3608762;39;20050;-85
2021/04/27 16:08:00;;;;;;;6.38;3.45;;;16.40;41.60;;;;;;3607158;39;20073;-83
2021/04/27 16:10:26;;;;;;;5.07;3.20;;;16.50;41.90;;;;;;3606986;39;20397;-82
2021/04/27 16:12:53;;;;;;;38.78;5.20;;;16.60;41.20;;;;;;3607309;39;20051;-84
2021/04/27 16:15:20;;;;;;;5.53;3.97;;;16.40;40.90;;;;;;3606865;39;20347;-88
2021/04/27 16:17:47;;;;;;;9.10;3.30;;;16.00;41.70;;;;;;3607056;39;20063;-85
2021/04/27 16:20:13;;;;;;;6.30;3.53;;;15.80;42.30;;;;;;3607173;39;20048;-86
2021/04/27 16:22:40;;;;;;;5.88;3.53;;;15.90;43.30;;;;;;3606799;39;20051;-86
2021/04/27 16:25:08;;;;;;;4.97;3.90;;;16.10;42.40;;;;;;3607460;39;20167;-84
2021/04/27 16:27:34;;;;;;;7.70;3.17;;;15.80;42.30;;;;;;3606767;39;20349;-82
2021/04/27 16:30:01;;;;;;;5.28;3.72;;;16.20;43.10;;;;;;3606553;39;20121;-83
2021/04/27 16:32:26;;;;;;;9.68;3.67;;;16.00;49.50;;;;;;3604794;39;20043;-82
2021/04/27 16:34:53;;;;;;;7.43;4.10;;;14.90;56.40;;;;;;3606784;39;20099;-83
2021/04/27 16:37:20;;;;;;;6.68;3.90;;;15.00;59.70;;;;;;3605982;39;20235;-83
2021/04/27 16:39:46;;;;;;;11.13;3.85;;;15.20;63.70;;;;;;3608290;39;20077;-89
2021/04/27 16:42:11;;;;;;;9.23;3.65;;;14.40;72.40;;;;;;3606317;39;20036;-89
2021/04/27 16:44:38;;;;;;;10.52;4.15;;;14.20;76.40;;;;;;3606293;39;20053;-87
2021/04/27 16:47:04;;;;;;;5.80;3.85;;;14.30;78.10;;;;;;3605046;39;20059;-88
2021/04/27 16:49:30;;;;;;;9.57;3.85;;;14.00;77.70;;;;;;3615154;39;20051;-90
2021/04/27 16:51:56;;;;;;;5.43;3.47;;;13.70;81.60;;;;;;3608000;39;20255;-89
2021/04/27 16:54:22;;;;;;;6.28;3.20;;;13.70;84.90;;;;;;3607839;39;20016;-90
2021/04/27 16:56:48;;;;;;;6.20;3.40;;;13.70;88.80;;;;;;3607578;39;20132;-90
2021/04/27 16:59:14;;;;;;;10.45;4.07;;;13.60;89.30;;;;;;3614550;39;20043;-89
2021/04/27 17:01:40;;;;;;;9.55;3.70;;;13.60;89.60;;;;;;3614362;39;20035;-88
2021/04/27 17:04:06;;;;;;;5.45;3.45;;;13.50;89.90;;;;;;3604731;39;20051;-89
2021/04/27 17:06:32;;;;;;;4.30;3.40;;;13.60;88.40;;;;;;3604984;39;20106;-90
2021/04/27 17:08:58;;;;;;;7.80;3.92;;;13.60;88.60;;;;;;3604104;39;20050;-90
2021/04/27 17:11:24;;;;;;;5.68;3.10;;;13.30;90.30;;;;;;3614150;39;20059;-89
2021/04/27 17:13:50;;;;;;;4.95;3.17;;;13.00;91.10;;;;;;3604982;39;20325;-90
2021/04/27 17:16:16;;;;;;;9.23;3.88;;;13.20;92.00;;;;;;3604637;39;20035;-91
2021/04/27 17:18:42;;;;;;;8.43;3.75;;;13.20;92.20;;;;;;3603919;39;20043;-90
2021/04/27 17:21:08;;;;;;;9.10;3.67;;;13.20;92.10;;;;;;3594930;39;20074;-90
2021/04/27 17:23:34;;;;;;;5.13;4.50;;;13.40;92.10;;;;;;3604709;39;20047;-91
2021/04/27 17:26:01;;;;;;;7.80;3.67;;;13.00;92.00;;;;;;3608899;39;20036;-91
2021/04/27 17:28:27;;;;;;;14.00;4.05;;;13.10;91.10;;;;;;3608439;39;20048;-89
2021/04/27 17:30:53;;;;;;;6.80;4.05;;;12.90;91.90;;;;;;3603213;39;20035;-90
2021/04/27 17:33:19;;;;;;;6.50;4.00;;;13.10;91.90;;;;;;3607799;39;20062;-89
2021/04/27 17:35:45;;;;;;;6.70;3.50;;;13.10;91.70;;;;;;3595910;39;20397;-89
2021/04/27 17:38:11;;;;;;;7.57;4.22;;;13.00;91.50;;;;;;3610304;39;20079;-89
2021/04/27 17:40:39;;;;;;;4.75;3.65;;;12.80;91.70;;;;;;3608303;39;20055;-89
2021/04/27 17:43:06;;;;;;;7.50;3.88;;;12.70;92.00;;;;;;3609223;39;20055;-89
2021/04/27 17:45:32;;;;;;;7.88;3.60;;;12.50;92.40;;;;;;3609740;39;20047;-91
2021/04/27 17:47:58;;;;;;;7.38;3.97;;;12.70;92.00;;;;;;3611947;39;20043;-92
2021/04/27 17:50:24;;;;;;;7.95;3.50;;;12.70;91.80;;;;;;3603787;39;20043;-90
2021/04/27 17:52:50;;;;;;;6.25;3.40;;;12.60;91.90;;;;;;3604221;39;20059;-91
2021/04/27 17:55:19;;;;;;;7.70;3.97;;;12.60;91.90;;;;;;3614011;39;20410;-89
2021/04/27 17:57:45;;;;;;;7.32;4.25;;;12.50;92.00;;;;;;3597657;39;20858;-90
2021/04/27 18:00:13;;;;;;;3.97;3.55;;;12.30;92.70;;;;;;3614315;39;20043;-89
2021/04/27 18:02:39;;;;;;;7.72;3.92;;;12.30;93.20;;;;;;3611497;39;20051;-88
2021/04/27 18:05:07;;;;;;;8.10;4.00;;;12.10;94.00;;;;;;3602264;39;20047;-87
2021/04/27 18:07:33;;;;;;;7.88;3.95;;;11.90;94.10;;;;;;3602828;39;20058;-91
2021/04/27 18:09:59;;;;;;;7.13;3.92;;;11.70;95.10;;;;;;3603204;39;20398;-91
2021/04/27 18:12:25;;;;;;;9.75;3.67;;;11.60;95.30;;;;;;3603357;39;20103;-89
2021/04/27 18:14:51;;;;;;;6.20;3.90;;;11.60;95.60;;;;;;3606518;39;20700;-89
2021/04/27 18:17:20;;;;;;;6.25;4.20;;;11.60;96.00;;;;;;3596951;39;20100;-89
2021/04/27 18:19:46;;;;;;;7.75;4.15;;;11.40;96.20;;;;;;3604087;39;20051;-90
2021/04/27 18:22:15;;;;;;;6.43;4.05;;;11.20;96.70;;;;;;3602421;39;20068;-90
2021/04/27 18:24:46;;;;;;;9.52;4.32;;;11.20;96.60;;;;;;3605497;39;20044;-89
2021/04/27 18:27:13;;;;;;;7.05;4.32;;;11.10;97.00;;;;;;3604965;39;20060;-90
2021/04/27 18:29:39;;;;;;;11.55;3.92;;;11.10;97.10;;;;;;3596882;39;20047;-88
2021/04/27 18:32:05;;;;;;;7.70;4.18;;;11.00;97.40;;;;;;3615328;39;20044;-89
2021/04/27 18:34:33;;;;;;;8.20;4.00;;;10.90;97.50;;;;;;3595250;39;20093;-88
2021/04/27 18:36:59;;;;;;;8.00;3.92;;;11.00;97.40;;;;;;3601232;39;20052;-91
2021/04/27 18:39:25;;;;;;;7.00;4.20;;;10.80;97.30;;;;;;3604533;39;20052;-90
2021/04/27 18:41:51;;;;;;;7.75;4.30;;;10.80;97.60;;;;;;3613855;39;20396;-92
2021/04/27 18:44:18;;;;;;;5.85;4.00;;;10.90;97.80;;;;;;3613065;39;20352;-91
2021/04/27 18:46:47;;;;;;;8.13;4.25;;;10.60;98.30;;;;;;3603035;39;20063;-91
2021/04/27 18:49:13;;;;;;;8.20;4.50;;;10.50;98.80;;;;;;3608677;39;20043;-89
2021/04/27 18:51:39;;;;;;;10.30;4.10;;;10.70;98.70;;;;;;3600823;39;20446;-90
2021/04/27 18:54:06;;;;;;;8.18;3.95;;;10.50;99.30;;;;;;3612108;39;20055;-89
2021/04/27 18:56:32;;;;;;;9.32;4.45;;;10.50;99.00;;;;;;3610534;39;20374;-88
2021/04/27 18:58:58;;;;;;;7.82;3.55;;;10.30;99.60;;;;;;3595953;39;20105;-90
2021/04/27 19:01:24;;;;;;;6.60;4.32;;;10.30;99.90;;;;;;3613535;39;20056;-88
2021/04/27 19:03:50;;;;;;;7.55;4.22;;;10.40;99.90;;;;;;3593231;39;20048;-91